UAE568 OMDB-VOBL
Flight info
| Callsign | UAE568 |
|---|---|
| Flight time | N/A |
| Altitude | 39000 |
| Route | ANVIX L223 TARDI N629 TOTOX P574 BBM W78 SUSIK SUSIK7L |
| Aircraft | A388/J-SADE2E3FGHIJ3J4J5M1RWXY/LB1D1 |
Departure
| Time | N/A |
|---|---|
| Airport | Dubai International Airport (OMDB) |
Arrival
| Time | 2026-05-03 21:29 |
|---|---|
| Airport | Kempegowda International Airport Bengaluru (VOBL) |
| Time | Latitude | Longitude | Altitude | Speed | Heading |
|---|---|---|---|---|---|
| 2026-05-03 20:15 | 17.94785 | 70.25173 | 38810 ft | 526 kts | 117° |
| 2026-05-03 20:15 | 17.91582 | 70.32011 | 38817 ft | 525 kts | 117° |
| 2026-05-03 20:16 | 17.88333 | 70.38941 | 38816 ft | 526 kts | 117° |
| 2026-05-03 20:16 | 17.85101 | 70.45827 | 38818 ft | 525 kts | 117° |
| 2026-05-03 20:17 | 17.81886 | 70.52668 | 38818 ft | 525 kts | 117° |
| 2026-05-03 20:17 | 17.78656 | 70.59536 | 38818 ft | 524 kts | 117° |
| 2026-05-03 20:18 | 17.75420 | 70.66395 | 38818 ft | 524 kts | 117° |
| 2026-05-03 20:18 | 17.72181 | 70.73254 | 38819 ft | 525 kts | 117° |
| 2026-05-03 20:19 | 17.68935 | 70.80120 | 38820 ft | 525 kts | 117° |
| 2026-05-03 20:19 | 17.65695 | 70.86969 | 38817 ft | 526 kts | 117° |
| 2026-05-03 20:20 | 17.62441 | 70.93838 | 38819 ft | 525 kts | 117° |
| 2026-05-03 20:20 | 17.59194 | 71.00684 | 38820 ft | 524 kts | 117° |
| 2026-05-03 20:21 | 17.55944 | 71.07530 | 38821 ft | 525 kts | 117° |
| 2026-05-03 20:21 | 17.52688 | 71.14383 | 38817 ft | 525 kts | 117° |
| 2026-05-03 20:22 | 17.49447 | 71.21194 | 38820 ft | 525 kts | 117° |
| 2026-05-03 20:22 | 17.46190 | 71.28033 | 38819 ft | 525 kts | 117° |
| 2026-05-03 20:23 | 17.42927 | 71.34877 | 38817 ft | 525 kts | 117° |
| 2026-05-03 20:23 | 17.39661 | 71.41720 | 38820 ft | 525 kts | 117° |
| 2026-05-03 20:24 | 17.36394 | 71.48557 | 38820 ft | 525 kts | 117° |
| 2026-05-03 20:24 | 17.33145 | 71.55351 | 38820 ft | 525 kts | 117° |
| 2026-05-03 20:25 | 17.29875 | 71.62181 | 38822 ft | 525 kts | 117° |
| 2026-05-03 20:25 | 17.26601 | 71.69011 | 38822 ft | 525 kts | 117° |
| 2026-05-03 20:26 | 17.23330 | 71.75828 | 38823 ft | 524 kts | 117° |
| 2026-05-03 20:26 | 17.20054 | 71.82648 | 38825 ft | 525 kts | 117° |
| 2026-05-03 20:27 | 17.16777 | 71.89464 | 38824 ft | 525 kts | 117° |
| 2026-05-03 20:27 | 17.13510 | 71.96252 | 38824 ft | 525 kts | 117° |
| 2026-05-03 20:28 | 17.10226 | 72.03067 | 38822 ft | 525 kts | 117° |
| 2026-05-03 20:28 | 17.06968 | 72.09889 | 38826 ft | 525 kts | 117° |
| 2026-05-03 20:29 | 17.03759 | 72.16757 | 38826 ft | 525 kts | 117° |
| 2026-05-03 20:29 | 17.00548 | 72.23608 | 38826 ft | 525 kts | 117° |
| 2026-05-03 20:30 | 16.97323 | 72.30464 | 38827 ft | 525 kts | 117° |
| 2026-05-03 20:30 | 16.94096 | 72.37313 | 38830 ft | 525 kts | 117° |
| 2026-05-03 20:31 | 16.90868 | 72.44158 | 38830 ft | 526 kts | 117° |
| 2026-05-03 20:31 | 16.87631 | 72.51015 | 38830 ft | 526 kts | 117° |
| 2026-05-03 20:32 | 16.84412 | 72.57825 | 38828 ft | 526 kts | 117° |
| 2026-05-03 20:32 | 16.81171 | 72.64677 | 38828 ft | 526 kts | 117° |
| 2026-05-03 20:33 | 16.77929 | 72.71523 | 38826 ft | 526 kts | 117° |
| 2026-05-03 20:33 | 16.74682 | 72.78371 | 38824 ft | 527 kts | 117° |
| 2026-05-03 20:34 | 16.71432 | 72.85220 | 38825 ft | 526 kts | 117° |
| 2026-05-03 20:34 | 16.68177 | 72.92072 | 38827 ft | 527 kts | 117° |
| 2026-05-03 20:35 | 16.64917 | 72.98927 | 38832 ft | 527 kts | 117° |
| 2026-05-03 20:35 | 16.61678 | 73.05731 | 38831 ft | 527 kts | 117° |
| 2026-05-03 20:36 | 16.58390 | 73.12622 | 38838 ft | 528 kts | 118° |
| 2026-05-03 20:36 | 16.55049 | 73.19376 | 38842 ft | 527 kts | 118° |
| 2026-05-03 20:37 | 16.51671 | 73.26165 | 38840 ft | 527 kts | 118° |
| 2026-05-03 20:37 | 16.48306 | 73.32953 | 38837 ft | 527 kts | 118° |
| 2026-05-03 20:38 | 16.44940 | 73.39744 | 38839 ft | 526 kts | 118° |
| 2026-05-03 20:38 | 16.41578 | 73.46521 | 38847 ft | 526 kts | 118° |
| 2026-05-03 20:39 | 16.38211 | 73.53302 | 38853 ft | 527 kts | 118° |
| 2026-05-03 20:39 | 16.34886 | 73.60050 | 38871 ft | 527 kts | 117° |
| 2026-05-03 20:40 | 16.31619 | 73.66874 | 38871 ft | 527 kts | 117° |
| 2026-05-03 20:40 | 16.28342 | 73.73700 | 38876 ft | 526 kts | 117° |
| 2026-05-03 20:41 | 16.25063 | 73.80502 | 38876 ft | 526 kts | 117° |
| 2026-05-03 20:41 | 16.21777 | 73.87305 | 38876 ft | 525 kts | 117° |
| 2026-05-03 20:42 | 16.18521 | 73.94049 | 38883 ft | 525 kts | 117° |
| 2026-05-03 20:42 | 16.15253 | 74.00846 | 38886 ft | 525 kts | 117° |
| 2026-05-03 20:43 | 16.11982 | 74.07637 | 38888 ft | 525 kts | 117° |
| 2026-05-03 20:43 | 16.08708 | 74.14427 | 38901 ft | 524 kts | 117° |
| 2026-05-03 20:44 | 16.05437 | 74.21203 | 38902 ft | 524 kts | 117° |
| 2026-05-03 20:44 | 16.02210 | 74.27881 | 38898 ft | 524 kts | 117° |
| 2026-05-03 20:45 | 15.98928 | 74.34665 | 38900 ft | 524 kts | 117° |
| 2026-05-03 20:45 | 15.95678 | 74.41380 | 38893 ft | 523 kts | 117° |
| 2026-05-03 20:46 | 15.92403 | 74.48137 | 38892 ft | 524 kts | 117° |
| 2026-05-03 20:46 | 15.89125 | 74.54895 | 38886 ft | 523 kts | 117° |
| 2026-05-03 20:47 | 15.85464 | 74.61410 | 38885 ft | 522 kts | 126° |
| 2026-05-03 20:47 | 15.80825 | 74.67190 | 38879 ft | 521 kts | 135° |
| 2026-05-03 20:48 | 15.75764 | 74.72578 | 38877 ft | 521 kts | 135° |
| 2026-05-03 20:48 | 15.70720 | 74.77993 | 38873 ft | 521 kts | 135° |
| 2026-05-03 20:49 | 15.65715 | 74.83358 | 38875 ft | 520 kts | 135° |
| 2026-05-03 20:49 | 15.64804 | 74.84333 | 38877 ft | 520 kts | 135° |
| 2026-05-03 20:50 | 15.60542 | 74.88893 | 38872 ft | 520 kts | 135° |
| 2026-05-03 20:50 | 15.55504 | 74.94279 | 38872 ft | 520 kts | 135° |
| 2026-05-03 20:51 | 15.50464 | 74.99663 | 38874 ft | 519 kts | 135° |
| 2026-05-03 20:51 | 15.45430 | 75.05037 | 38875 ft | 519 kts | 135° |
| 2026-05-03 20:52 | 15.40397 | 75.10406 | 38876 ft | 519 kts | 135° |
| 2026-05-03 20:52 | 15.35357 | 75.15778 | 38874 ft | 519 kts | 135° |
| 2026-05-03 20:53 | 15.30358 | 75.21102 | 38874 ft | 519 kts | 135° |
| 2026-05-03 20:53 | 15.25322 | 75.26463 | 38878 ft | 518 kts | 135° |
| 2026-05-03 20:54 | 15.21111 | 75.30942 | 38880 ft | 518 kts | 135° |
| 2026-05-03 20:54 | 15.12743 | 75.39834 | 38881 ft | 519 kts | 135° |
| 2026-05-03 20:55 | 15.07710 | 75.45178 | 38879 ft | 518 kts | 135° |
| 2026-05-03 20:55 | 15.03514 | 75.49629 | 38879 ft | 519 kts | 135° |
| 2026-05-03 20:56 | 14.98464 | 75.54983 | 38880 ft | 519 kts | 135° |
| 2026-05-03 20:56 | 14.93418 | 75.60329 | 38878 ft | 519 kts | 135° |
| 2026-05-03 20:57 | 14.88367 | 75.65677 | 38882 ft | 519 kts | 135° |
| 2026-05-03 20:57 | 14.83312 | 75.71025 | 38880 ft | 519 kts | 135° |
| 2026-05-03 20:58 | 14.78258 | 75.76369 | 38881 ft | 519 kts | 135° |
| 2026-05-03 20:58 | 14.73238 | 75.81672 | 38884 ft | 519 kts | 135° |
| 2026-05-03 20:59 | 14.68184 | 75.87007 | 38886 ft | 519 kts | 135° |
| 2026-05-03 20:59 | 14.63136 | 75.92333 | 38889 ft | 519 kts | 135° |
| 2026-05-03 21:00 | 14.58937 | 75.96760 | 38890 ft | 520 kts | 135° |
| 2026-05-03 21:00 | 14.53019 | 76.02995 | 38894 ft | 519 kts | 135° |
| 2026-05-03 21:01 | 14.47959 | 76.08323 | 38894 ft | 520 kts | 135° |
| 2026-05-03 21:01 | 14.42888 | 76.13658 | 38891 ft | 520 kts | 135° |
| 2026-05-03 21:02 | 14.38102 | 76.19203 | 38898 ft | 523 kts | 128° |
| 2026-05-03 21:02 | 14.33647 | 76.25138 | 38896 ft | 524 kts | 129° |
| 2026-05-03 21:03 | 14.29168 | 76.31061 | 38897 ft | 523 kts | 129° |
| 2026-05-03 21:03 | 14.24692 | 76.36971 | 38894 ft | 523 kts | 129° |
| 2026-05-03 21:04 | 14.20215 | 76.42880 | 38731 ft | 519 kts | 129° |
| 2026-05-03 21:04 | 14.17996 | 76.45809 | 38082 ft | 518 kts | 129° |
| 2026-05-03 21:04 | 14.15775 | 76.48739 | 37261 ft | 518 kts | 129° |
| 2026-05-03 21:05 | 14.13555 | 76.51665 | 36387 ft | 519 kts | 129° |
| 2026-05-03 21:05 | 14.11328 | 76.54599 | 35495 ft | 520 kts | 129° |
| 2026-05-03 21:05 | 14.09099 | 76.57536 | 34509 ft | 521 kts | 129° |
| 2026-05-03 21:05 | 14.06895 | 76.60439 | 33385 ft | 520 kts | 129° |
| 2026-05-03 21:06 | 14.04673 | 76.63366 | 32286 ft | 517 kts | 129° |
| 2026-05-03 21:06 | 14.02460 | 76.66278 | 31219 ft | 514 kts | 129° |
| 2026-05-03 21:06 | 14.00265 | 76.69167 | 30195 ft | 510 kts | 129° |
| 2026-05-03 21:06 | 13.98083 | 76.72036 | 29052 ft | 506 kts | 129° |
| 2026-05-03 21:07 | 13.95917 | 76.74884 | 27907 ft | 503 kts | 129° |
| 2026-05-03 21:07 | 13.93767 | 76.77708 | 26831 ft | 499 kts | 129° |
| 2026-05-03 21:07 | 13.91639 | 76.80504 | 25856 ft | 493 kts | 129° |
| 2026-05-03 21:07 | 13.89557 | 76.83239 | 25364 ft | 476 kts | 129° |
| 2026-05-03 21:08 | 13.87558 | 76.85866 | 24895 ft | 460 kts | 129° |
| 2026-05-03 21:08 | 13.85618 | 76.88413 | 24067 ft | 456 kts | 129° |
| 2026-05-03 21:08 | 13.83835 | 76.91085 | 23130 ft | 453 kts | 118° |
| 2026-05-03 21:08 | 13.82622 | 76.94049 | 22269 ft | 445 kts | 106° |
| 2026-05-03 21:09 | 13.82002 | 76.97136 | 21488 ft | 436 kts | 95° |
| 2026-05-03 21:09 | 13.81756 | 77.00217 | 20711 ft | 428 kts | 94° |
| 2026-05-03 21:09 | 13.81500 | 77.03236 | 20188 ft | 418 kts | 95° |
| 2026-05-03 21:09 | 13.81238 | 77.06213 | 19989 ft | 418 kts | 95° |
| 2026-05-03 21:10 | 13.80975 | 77.09202 | 19929 ft | 420 kts | 95° |
| 2026-05-03 21:10 | 13.80711 | 77.12204 | 19926 ft | 421 kts | 95° |
| 2026-05-03 21:10 | 13.80448 | 77.15210 | 19928 ft | 421 kts | 95° |
| 2026-05-03 21:10 | 13.80187 | 77.18205 | 19928 ft | 421 kts | 95° |
| 2026-05-03 21:11 | 13.79854 | 77.21195 | 19926 ft | 421 kts | 102° |
| 2026-05-03 21:11 | 13.78945 | 77.24010 | 19929 ft | 422 kts | 116° |
| 2026-05-03 21:11 | 13.77363 | 77.26547 | 19930 ft | 422 kts | 131° |
| 2026-05-03 21:11 | 13.75229 | 77.28595 | 19848 ft | 414 kts | 145° |
| 2026-05-03 21:12 | 13.72836 | 77.30121 | 19724 ft | 398 kts | 150° |
| 2026-05-03 21:12 | 13.70456 | 77.31471 | 19434 ft | 383 kts | 151° |
| 2026-05-03 21:12 | 13.68158 | 77.32801 | 18867 ft | 376 kts | 149° |
| 2026-05-03 21:12 | 13.65903 | 77.34172 | 18045 ft | 378 kts | 148° |
| 2026-05-03 21:13 | 13.63658 | 77.35588 | 17087 ft | 380 kts | 147° |
| 2026-05-03 21:13 | 13.61415 | 77.37032 | 16153 ft | 381 kts | 147° |
| 2026-05-03 21:13 | 13.59175 | 77.38485 | 15243 ft | 382 kts | 147° |
| 2026-05-03 21:13 | 13.56999 | 77.40043 | 14359 ft | 380 kts | 142° |
| 2026-05-03 21:14 | 13.54905 | 77.41645 | 13935 ft | 367 kts | 142° |
| 2026-05-03 21:14 | 13.52917 | 77.43153 | 13756 ft | 348 kts | 142° |
| 2026-05-03 21:14 | 13.51024 | 77.44585 | 13584 ft | 329 kts | 142° |
| 2026-05-03 21:14 | 13.49229 | 77.45942 | 13428 ft | 313 kts | 142° |
| 2026-05-03 21:15 | 13.47497 | 77.47253 | 12997 ft | 308 kts | 142° |
| 2026-05-03 21:15 | 13.45798 | 77.48541 | 12478 ft | 307 kts | 142° |
| 2026-05-03 21:15 | 13.44088 | 77.49835 | 12089 ft | 302 kts | 142° |
| 2026-05-03 21:15 | 13.42408 | 77.51106 | 11966 ft | 298 kts | 142° |
| 2026-05-03 21:16 | 13.40739 | 77.52368 | 11955 ft | 298 kts | 142° |
| 2026-05-03 21:16 | 13.39064 | 77.53635 | 11958 ft | 300 kts | 142° |
| 2026-05-03 21:16 | 13.37379 | 77.54909 | 11961 ft | 302 kts | 142° |
| 2026-05-03 21:16 | 13.35691 | 77.56185 | 11960 ft | 300 kts | 142° |
| 2026-05-03 21:17 | 13.34017 | 77.57450 | 11961 ft | 298 kts | 142° |
| 2026-05-03 21:17 | 13.32889 | 77.58304 | 11961 ft | 298 kts | 141° |
| 2026-05-03 21:17 | 13.31200 | 77.60464 | 11964 ft | 296 kts | 110° |
| 2026-05-03 21:17 | 13.30823 | 77.62518 | 11965 ft | 293 kts | 90° |
| 2026-05-03 21:18 | 13.30852 | 77.64605 | 11884 ft | 292 kts | 86° |
| 2026-05-03 21:18 | 13.30939 | 77.66696 | 11637 ft | 293 kts | 86° |
| 2026-05-03 21:18 | 13.30999 | 77.68776 | 11404 ft | 291 kts | 87° |
| 2026-05-03 21:18 | 13.31013 | 77.69756 | 11291 ft | 291 kts | 88° |
| 2026-05-03 21:19 | 13.31020 | 77.70688 | 11186 ft | 292 kts | 88° |
| 2026-05-03 21:19 | 13.31020 | 77.72766 | 10949 ft | 290 kts | 89° |
| 2026-05-03 21:19 | 13.31007 | 77.74836 | 10715 ft | 290 kts | 89° |
| 2026-05-03 21:19 | 13.30990 | 77.76874 | 10492 ft | 290 kts | 89° |
| 2026-05-03 21:20 | 13.30971 | 77.78932 | 10266 ft | 288 kts | 89° |
| 2026-05-03 21:20 | 13.30953 | 77.80978 | 9937 ft | 289 kts | 89° |
| 2026-05-03 21:20 | 13.30937 | 77.82894 | 9528 ft | 291 kts | 89° |
| 2026-05-03 21:20 | 13.30921 | 77.84819 | 9116 ft | 292 kts | 89° |
| 2026-05-03 21:21 | 13.30903 | 77.86906 | 8676 ft | 293 kts | 89° |
| 2026-05-03 21:21 | 13.30885 | 77.89004 | 8230 ft | 294 kts | 89° |
| 2026-05-03 21:21 | 13.30861 | 77.91106 | 7802 ft | 294 kts | 92° |
| 2026-05-03 21:21 | 13.30367 | 77.93135 | 7372 ft | 295 kts | 117° |
| 2026-05-03 21:22 | 13.29081 | 77.94743 | 7086 ft | 289 kts | 144° |
| 2026-05-03 21:22 | 13.27342 | 77.95705 | 6826 ft | 283 kts | 158° |
| 2026-05-03 21:22 | 13.25502 | 77.96417 | 6414 ft | 283 kts | 165° |
| 2026-05-03 21:22 | 13.23567 | 77.96528 | 6082 ft | 277 kts | 192° |
| 2026-05-03 21:23 | 13.21890 | 77.95757 | 5975 ft | 254 kts | 221° |
| 2026-05-03 21:23 | 13.20889 | 77.94400 | 5993 ft | 226 kts | 248° |
| 2026-05-03 21:23 | 13.20505 | 77.92947 | 5989 ft | 200 kts | 263° |
| 2026-05-03 21:23 | 13.20498 | 77.91615 | 6001 ft | 184 kts | 275° |
| 2026-05-03 21:24 | 13.20594 | 77.90280 | 5998 ft | 188 kts | 271° |
| 2026-05-03 21:24 | 13.20602 | 77.88956 | 5767 ft | 184 kts | 269° |
| 2026-05-03 21:24 | 13.20587 | 77.87628 | 5227 ft | 185 kts | 269° |
| 2026-05-03 21:24 | 13.20568 | 77.86401 | 5041 ft | 162 kts | 270° |
| 2026-05-03 21:25 | 13.20575 | 77.85302 | 4989 ft | 145 kts | 271° |
| 2026-05-03 21:25 | 13.20581 | 77.84277 | 4998 ft | 146 kts | 270° |
| 2026-05-03 21:25 | 13.20591 | 77.83233 | 4988 ft | 147 kts | 271° |
| 2026-05-03 21:25 | 13.20599 | 77.82179 | 4813 ft | 147 kts | 271° |
| 2026-05-03 21:26 | 13.20609 | 77.81139 | 4626 ft | 145 kts | 271° |
| 2026-05-03 21:26 | 13.20618 | 77.80106 | 4443 ft | 145 kts | 272° |
| 2026-05-03 21:26 | 13.20625 | 77.79072 | 4255 ft | 145 kts | 271° |
| 2026-05-03 21:26 | 13.20634 | 77.78041 | 4075 ft | 143 kts | 271° |
| 2026-05-03 21:27 | 13.20645 | 77.77016 | 3891 ft | 145 kts | 270° |
| 2026-05-03 21:27 | 13.20649 | 77.75986 | 3695 ft | 144 kts | 270° |
| 2026-05-03 21:27 | 13.20663 | 77.74965 | 3496 ft | 142 kts | 269° |
| 2026-05-03 21:27 | 13.20668 | 77.73945 | 3309 ft | 145 kts | 270° |
| 2026-05-03 21:28 | 13.20681 | 77.72927 | 3106 ft | 141 kts | 269° |
| 2026-05-03 21:28 | 13.20690 | 77.71946 | 3017 ft | 125 kts | 270° |
| 2026-05-03 21:28 | 13.20695 | 77.71187 | 3016 ft | 88 kts | 270° |
| 2026-05-03 21:28 | 13.20701 | 77.70659 | 3016 ft | 62 kts | 269° |
| 2026-05-03 21:29 | 13.20706 | 77.70287 | 3016 ft | 45 kts | 270° |
| 2026-05-03 21:29 | 13.20708 | 77.69995 | 3016 ft | 39 kts | 270° |
| 2026-05-03 21:29 | 13.20710 | 77.69724 | 3016 ft | 37 kts | 270° |
| 2026-05-03 21:29 | 13.20713 | 77.69464 | 3016 ft | 36 kts | 270° |
| 2026-05-03 21:30 | 13.20702 | 77.69243 | 3019 ft | 17 kts | 233° |
| 2026-05-03 21:30 | 13.20646 | 77.69207 | 3016 ft | 0 kts | 186° |
| 2026-05-03 21:30 | 13.20644 | 77.69207 | 3016 ft | 3 kts | 186° |
| 2026-05-03 21:31 | 13.20597 | 77.69202 | 3016 ft | 11 kts | 185° |
| 2026-05-03 21:31 | 13.20544 | 77.69235 | 3016 ft | 10 kts | 99° |
| 2026-05-03 21:31 | 13.20542 | 77.69337 | 3016 ft | 18 kts | 91° |
| 2026-05-03 21:31 | 13.20540 | 77.69490 | 3016 ft | 25 kts | 90° |
| 2026-05-03 21:32 | 13.20538 | 77.69694 | 3016 ft | 30 kts | 90° |
| 2026-05-03 21:32 | 13.20536 | 77.69928 | 3016 ft | 35 kts | 89° |
| 2026-05-03 21:32 | 13.20534 | 77.70185 | 3017 ft | 37 kts | 90° |
| 2026-05-03 21:32 | 13.20532 | 77.70415 | 3016 ft | 35 kts | 91° |
| 2026-05-03 21:33 | 13.20529 | 77.70655 | 3016 ft | 33 kts | 90° |
| 2026-05-03 21:33 | 13.20527 | 77.70885 | 3016 ft | 32 kts | 90° |
| 2026-05-03 21:33 | 13.20526 | 77.71036 | 3016 ft | 31 kts | 90° |
| 2026-05-03 21:33 | 13.20525 | 77.71288 | 3016 ft | 30 kts | 90° |
| 2026-05-03 21:34 | 13.20523 | 77.71502 | 3016 ft | 30 kts | 90° |
| 2026-05-03 21:34 | 13.20522 | 77.71711 | 3017 ft | 26 kts | 90° |
| 2026-05-03 21:34 | 13.20503 | 77.71792 | 3017 ft | 5 kts | 170° |
| 2026-05-03 21:34 | 13.20472 | 77.71790 | 3017 ft | 7 kts | 183° |
| 2026-05-03 21:35 | 13.20415 | 77.71787 | 3016 ft | 10 kts | 182° |
| 2026-05-03 21:35 | 13.20339 | 77.71787 | 3016 ft | 12 kts | 179° |
| 2026-05-03 21:35 | 13.20249 | 77.71787 | 3016 ft | 14 kts | 180° |
| 2026-05-03 21:35 | 13.20162 | 77.71807 | 3016 ft | 6 kts | 171° |
| 2026-05-03 21:36 | 13.20111 | 77.71815 | 3016 ft | 9 kts | 171° |
| 2026-05-03 21:36 | 13.20088 | 77.71819 | 3016 ft | 0 kts | 171° |